sensor_id;sensor_type;location;lat;lon;timestamp;P1;durP1;ratioP1;P2;durP2;ratioP2
4353;SDS011;11018;51.258;6.806;2023-10-13T00:01:23;28.58;;;15.20;;
4353;SDS011;11018;51.258;6.806;2023-10-13T00:03:49;25.88;;;15.35;;
4353;SDS011;11018;51.258;6.806;2023-10-13T00:06:17;24.40;;;16.20;;
4353;SDS011;11018;51.258;6.806;2023-10-13T00:08:43;24.50;;;14.80;;
4353;SDS011;11018;51.258;6.806;2023-10-13T00:11:15;27.52;;;14.73;;
4353;SDS011;11018;51.258;6.806;2023-10-13T00:13:41;26.95;;;15.52;;
4353;SDS011;11018;51.258;6.806;2023-10-13T00:16:19;25.63;;;15.18;;
4353;SDS011;11018;51.258;6.806;2023-10-13T00:18:53;23.50;;;14.85;;
4353;SDS011;11018;51.258;6.806;2023-10-13T00:21:22;28.20;;;15.18;;
4353;SDS011;11018;51.258;6.806;2023-10-13T00:23:58;28.23;;;15.00;;
4353;SDS011;11018;51.258;6.806;2023-10-13T00:26:31;24.42;;;14.88;;
4353;SDS011;11018;51.258;6.806;2023-10-13T00:29:01;22.63;;;14.13;;
4353;SDS011;11018;51.258;6.806;2023-10-13T00:31:43;28.20;;;14.90;;
4353;SDS011;11018;51.258;6.806;2023-10-13T00:34:13;20.88;;;14.50;;
4353;SDS011;11018;51.258;6.806;2023-10-13T00:36:50;26.23;;;15.10;;
4353;SDS011;11018;51.258;6.806;2023-10-13T00:39:35;23.25;;;14.82;;
4353;SDS011;11018;51.258;6.806;2023-10-13T00:42:02;24.42;;;14.73;;
4353;SDS011;11018;51.258;6.806;2023-10-13T00:44:32;23.42;;;14.80;;
4353;SDS011;11018;51.258;6.806;2023-10-13T00:47:08;20.30;;;14.07;;
4353;SDS011;11018;51.258;6.806;2023-10-13T00:49:35;23.70;;;13.88;;
4353;SDS011;11018;51.258;6.806;2023-10-13T00:52:05;26.40;;;15.20;;
4353;SDS011;11018;51.258;6.806;2023-10-13T00:54:32;23.13;;;13.93;;
4353;SDS011;11018;51.258;6.806;2023-10-13T00:57:01;21.77;;;14.00;;
4353;SDS011;11018;51.258;6.806;2023-10-13T00:59:37;21.35;;;13.63;;
4353;SDS011;11018;51.258;6.806;2023-10-13T01:02:02;21.20;;;13.50;;
4353;SDS011;11018;51.258;6.806;2023-10-13T01:04:48;23.63;;;14.48;;
4353;SDS011;11018;51.258;6.806;2023-10-13T01:07:15;20.83;;;13.40;;
4353;SDS011;11018;51.258;6.806;2023-10-13T01:09:47;23.00;;;13.68;;
4353;SDS011;11018;51.258;6.806;2023-10-13T01:12:12;20.10;;;13.02;;
4353;SDS011;11018;51.258;6.806;2023-10-13T01:14:39;22.45;;;13.05;;
4353;SDS011;11018;51.258;6.806;2023-10-13T01:17:05;22.73;;;13.50;;
4353;SDS011;11018;51.258;6.806;2023-10-13T01:19:35;22.97;;;13.23;;
4353;SDS011;11018;51.258;6.806;2023-10-13T01:22:04;19.05;;;12.60;;
4353;SDS011;11018;51.258;6.806;2023-10-13T01:24:31;20.17;;;12.68;;
4353;SDS011;11018;51.258;6.806;2023-10-13T01:26:59;21.38;;;12.38;;
4353;SDS011;11018;51.258;6.806;2023-10-13T01:29:42;22.42;;;12.75;;
4353;SDS011;11018;51.258;6.806;2023-10-13T01:32:23;18.95;;;12.65;;
4353;SDS011;11018;51.258;6.806;2023-10-13T01:34:49;21.47;;;13.03;;
4353;SDS011;11018;51.258;6.806;2023-10-13T01:37:20;25.08;;;13.50;;
4353;SDS011;11018;51.258;6.806;2023-10-13T01:39:46;22.92;;;13.75;;
4353;SDS011;11018;51.258;6.806;2023-10-13T01:42:14;17.88;;;12.80;;
4353;SDS011;11018;51.258;6.806;2023-10-13T01:44:44;20.13;;;12.93;;
4353;SDS011;11018;51.258;6.806;2023-10-13T01:47:10;21.77;;;12.52;;
4353;SDS011;11018;51.258;6.806;2023-10-13T01:49:37;21.95;;;13.02;;
4353;SDS011;11018;51.258;6.806;2023-10-13T01:52:23;23.48;;;12.88;;
4353;SDS011;11018;51.258;6.806;2023-10-13T01:54:49;19.80;;;13.00;;
4353;SDS011;11018;51.258;6.806;2023-10-13T01:57:15;20.00;;;13.32;;
4353;SDS011;11018;51.258;6.806;2023-10-13T01:59:49;18.08;;;12.55;;
4353;SDS011;11018;51.258;6.806;2023-10-13T02:02:15;24.00;;;13.13;;
4353;SDS011;11018;51.258;6.806;2023-10-13T02:04:53;25.25;;;13.63;;
4353;SDS011;11018;51.258;6.806;2023-10-13T02:07:25;22.73;;;14.20;;
4353;SDS011;11018;51.258;6.806;2023-10-13T02:10:03;22.75;;;13.35;;
4353;SDS011;11018;51.258;6.806;2023-10-13T02:12:30;20.55;;;13.40;;
4353;SDS011;11018;51.258;6.806;2023-10-13T02:15:11;23.23;;;13.40;;
4353;SDS011;11018;51.258;6.806;2023-10-13T02:17:51;18.05;;;13.65;;
4353;SDS011;11018;51.258;6.806;2023-10-13T02:20:19;24.23;;;13.60;;
4353;SDS011;11018;51.258;6.806;2023-10-13T02:22:48;22.55;;;13.70;;
4353;SDS011;11018;51.258;6.806;2023-10-13T02:25:18;21.83;;;13.80;;
4353;SDS011;11018;51.258;6.806;2023-10-13T02:28:03;24.13;;;14.57;;
4353;SDS011;11018;51.258;6.806;2023-10-13T02:30:41;21.85;;;14.52;;
4353;SDS011;11018;51.258;6.806;2023-10-13T02:33:13;24.33;;;13.98;;
4353;SDS011;11018;51.258;6.806;2023-10-13T02:35:39;19.85;;;13.50;;
4353;SDS011;11018;51.258;6.806;2023-10-13T02:38:15;23.63;;;13.88;;
4353;SDS011;11018;51.258;6.806;2023-10-13T02:40:42;18.27;;;13.30;;
4353;SDS011;11018;51.258;6.806;2023-10-13T02:43:07;26.80;;;14.60;;
4353;SDS011;11018;51.258;6.806;2023-10-13T02:45:33;24.20;;;14.23;;
4353;SDS011;11018;51.258;6.806;2023-10-13T02:48:03;18.80;;;13.75;;
4353;SDS011;11018;51.258;6.806;2023-10-13T02:50:42;19.13;;;14.05;;
4353;SDS011;11018;51.258;6.806;2023-10-13T02:53:09;22.13;;;13.30;;
4353;SDS011;11018;51.258;6.806;2023-10-13T02:55:37;25.23;;;16.60;;
4353;SDS011;11018;51.258;6.806;2023-10-13T02:58:29;21.80;;;14.90;;
4353;SDS011;11018;51.258;6.806;2023-10-13T03:01:03;29.08;;;15.30;;
4353;SDS011;11018;51.258;6.806;2023-10-13T03:03:41;21.00;;;14.70;;
4353;SDS011;11018;51.258;6.806;2023-10-13T03:06:08;28.63;;;16.25;;
4353;SDS011;11018;51.258;6.806;2023-10-13T03:08:37;21.13;;;14.77;;
4353;SDS011;11018;51.258;6.806;2023-10-13T03:11:03;25.20;;;16.05;;
4353;SDS011;11018;51.258;6.806;2023-10-13T03:13:30;27.25;;;15.88;;
4353;SDS011;11018;51.258;6.806;2023-10-13T03:15:59;22.80;;;15.60;;
4353;SDS011;11018;51.258;6.806;2023-10-13T03:18:24;25.00;;;14.80;;
4353;SDS011;11018;51.258;6.806;2023-10-13T03:20:50;25.57;;;15.70;;
4353;SDS011;11018;51.258;6.806;2023-10-13T03:23:21;23.30;;;15.60;;
4353;SDS011;11018;51.258;6.806;2023-10-13T03:25:49;28.92;;;17.23;;
4353;SDS011;11018;51.258;6.806;2023-10-13T03:28:15;26.80;;;16.90;;
4353;SDS011;11018;51.258;6.806;2023-10-13T03:30:43;27.33;;;15.97;;
4353;SDS011;11018;51.258;6.806;2023-10-13T03:33:09;26.90;;;16.80;;
4353;SDS011;11018;51.258;6.806;2023-10-13T03:35:37;27.05;;;17.88;;
4353;SDS011;11018;51.258;6.806;2023-10-13T03:38:06;29.40;;;16.05;;
4353;SDS011;11018;51.258;6.806;2023-10-13T03:40:42;38.15;;;17.85;;
4353;SDS011;11018;51.258;6.806;2023-10-13T03:43:21;28.30;;;17.20;;
4353;SDS011;11018;51.258;6.806;2023-10-13T03:45:48;26.80;;;17.17;;
4353;SDS011;11018;51.258;6.806;2023-10-13T03:48:25;28.73;;;16.95;;
4353;SDS011;11018;51.258;6.806;2023-10-13T03:50:52;27.42;;;17.05;;
4353;SDS011;11018;51.258;6.806;2023-10-13T03:53:28;27.02;;;17.45;;
4353;SDS011;11018;51.258;6.806;2023-10-13T03:55:58;29.83;;;17.83;;
4353;SDS011;11018;51.258;6.806;2023-10-13T03:58:37;23.63;;;16.38;;
4353;SDS011;11018;51.258;6.806;2023-10-13T04:01:04;29.30;;;16.80;;
4353;SDS011;11018;51.258;6.806;2023-10-13T04:03:35;26.87;;;16.70;;
4353;SDS011;11018;51.258;6.806;2023-10-13T04:06:01;29.55;;;17.00;;
4353;SDS011;11018;51.258;6.806;2023-10-13T04:08:33;27.67;;;16.70;;
4353;SDS011;11018;51.258;6.806;2023-10-13T04:11:08;29.23;;;17.25;;
4353;SDS011;11018;51.258;6.806;2023-10-13T04:13:56;27.48;;;17.20;;
4353;SDS011;11018;51.258;6.806;2023-10-13T04:16:40;28.02;;;18.08;;
4353;SDS011;11018;51.258;6.806;2023-10-13T04:19:17;29.33;;;17.30;;
4353;SDS011;11018;51.258;6.806;2023-10-13T04:21:49;29.35;;;17.60;;
4353;SDS011;11018;51.258;6.806;2023-10-13T04:24:25;29.67;;;18.27;;
4353;SDS011;11018;51.258;6.806;2023-10-13T04:27:23;31.52;;;19.02;;
4353;SDS011;11018;51.258;6.806;2023-10-13T04:30:05;28.43;;;17.80;;
4353;SDS011;11018;51.258;6.806;2023-10-13T04:32:34;28.50;;;16.85;;
4353;SDS011;11018;51.258;6.806;2023-10-13T04:35:17;29.90;;;17.42;;
4353;SDS011;11018;51.258;6.806;2023-10-13T04:37:44;28.13;;;18.27;;
4353;SDS011;11018;51.258;6.806;2023-10-13T04:40:20;30.90;;;17.48;;
4353;SDS011;11018;51.258;6.806;2023-10-13T04:42:49;29.85;;;17.63;;
4353;SDS011;11018;51.258;6.806;2023-10-13T04:45:19;30.52;;;17.75;;
4353;SDS011;11018;51.258;6.806;2023-10-13T04:47:54;35.95;;;18.70;;
4353;SDS011;11018;51.258;6.806;2023-10-13T04:50:39;32.55;;;17.42;;
4353;SDS011;11018;51.258;6.806;2023-10-13T04:53:10;32.30;;;18.23;;
4353;SDS011;11018;51.258;6.806;2023-10-13T04:55:58;26.90;;;17.10;;
4353;SDS011;11018;51.258;6.806;2023-10-13T04:58:26;28.25;;;17.40;;
4353;SDS011;11018;51.258;6.806;2023-10-13T05:01:04;31.27;;;17.55;;
4353;SDS011;11018;51.258;6.806;2023-10-13T05:04:02;27.40;;;17.88;;
4353;SDS011;11018;51.258;6.806;2023-10-13T05:06:47;33.57;;;17.93;;
4353;SDS011;11018;51.258;6.806;2023-10-13T05:09:31;26.60;;;17.73;;
4353;SDS011;11018;51.258;6.806;2023-10-13T05:12:15;38.28;;;18.27;;
4353;SDS011;11018;51.258;6.806;2023-10-13T05:15:13;28.50;;;17.05;;
4353;SDS011;11018;51.258;6.806;2023-10-13T05:17:57;27.55;;;17.67;;
4353;SDS011;11018;51.258;6.806;2023-10-13T05:20:41;25.55;;;17.00;;
4353;SDS011;11018;51.258;6.806;2023-10-13T05:23:25;34.80;;;20.63;;
4353;SDS011;11018;51.258;6.806;2023-10-13T05:26:09;27.23;;;17.45;;
4353;SDS011;11018;51.258;6.806;2023-10-13T05:28:53;27.80;;;18.33;;
4353;SDS011;11018;51.258;6.806;2023-10-13T05:31:37;37.50;;;18.98;;
4353;SDS011;11018;51.258;6.806;2023-10-13T05:34:21;33.22;;;18.15;;
4353;SDS011;11018;51.258;6.806;2023-10-13T05:37:05;29.55;;;19.25;;
4353;SDS011;11018;51.258;6.806;2023-10-13T05:39:49;26.48;;;18.25;;
4353;SDS011;11018;51.258;6.806;2023-10-13T05:42:33;33.63;;;19.02;;
4353;SDS011;11018;51.258;6.806;2023-10-13T05:45:17;34.58;;;18.60;;
4353;SDS011;11018;51.258;6.806;2023-10-13T05:47:43;33.35;;;18.83;;
4353;SDS011;11018;51.258;6.806;2023-10-13T05:50:09;33.30;;;17.30;;
4353;SDS011;11018;51.258;6.806;2023-10-13T05:52:47;27.88;;;16.52;;
4353;SDS011;11018;51.258;6.806;2023-10-13T05:55:26;30.45;;;17.30;;
4353;SDS011;11018;51.258;6.806;2023-10-13T05:58:11;27.00;;;16.50;;
4353;SDS011;11018;51.258;6.806;2023-10-13T06:00:55;32.30;;;17.42;;
4353;SDS011;11018;51.258;6.806;2023-10-13T06:03:40;28.75;;;15.52;;
4353;SDS011;11018;51.258;6.806;2023-10-13T06:06:24;22.67;;;15.85;;
4353;SDS011;11018;51.258;6.806;2023-10-13T06:09:08;28.38;;;15.55;;
4353;SDS011;11018;51.258;6.806;2023-10-13T06:11:52;25.25;;;14.32;;
4353;SDS011;11018;51.258;6.806;2023-10-13T06:14:36;28.85;;;13.20;;
4353;SDS011;11018;51.258;6.806;2023-10-13T06:17:20;21.67;;;11.85;;
4353;SDS011;11018;51.258;6.806;2023-10-13T06:20:05;21.70;;;12.50;;
4353;SDS011;11018;51.258;6.806;2023-10-13T06:22:49;23.30;;;13.15;;
4353;SDS011;11018;51.258;6.806;2023-10-13T06:25:33;21.55;;;13.70;;
4353;SDS011;11018;51.258;6.806;2023-10-13T06:28:18;24.73;;;13.25;;
4353;SDS011;11018;51.258;6.806;2023-10-13T06:31:03;25.05;;;12.88;;
4353;SDS011;11018;51.258;6.806;2023-10-13T06:33:31;25.73;;;14.55;;
4353;SDS011;11018;51.258;6.806;2023-10-13T06:35:59;26.13;;;14.05;;
4353;SDS011;11018;51.258;6.806;2023-10-13T06:38:25;26.25;;;13.77;;
4353;SDS011;11018;51.258;6.806;2023-10-13T06:40:55;23.40;;;13.30;;
4353;SDS011;11018;51.258;6.806;2023-10-13T06:43:22;25.48;;;13.93;;
4353;SDS011;11018;51.258;6.806;2023-10-13T06:45:49;24.83;;;13.80;;
4353;SDS011;11018;51.258;6.806;2023-10-13T06:48:28;27.90;;;15.00;;
4353;SDS011;11018;51.258;6.806;2023-10-13T06:50:58;31.63;;;14.90;;
4353;SDS011;11018;51.258;6.806;2023-10-13T06:53:29;27.67;;;14.30;;
4353;SDS011;11018;51.258;6.806;2023-10-13T06:55:54;29.30;;;15.57;;
4353;SDS011;11018;51.258;6.806;2023-10-13T06:58:23;31.33;;;14.93;;
4353;SDS011;11018;51.258;6.806;2023-10-13T07:00:50;21.03;;;13.77;;
4353;SDS011;11018;51.258;6.806;2023-10-13T07:03:20;25.05;;;14.52;;
4353;SDS011;11018;51.258;6.806;2023-10-13T07:05:47;31.42;;;15.20;;
4353;SDS011;11018;51.258;6.806;2023-10-13T07:08:16;27.13;;;15.20;;
4353;SDS011;11018;51.258;6.806;2023-10-13T07:10:49;24.40;;;13.75;;
4353;SDS011;11018;51.258;6.806;2023-10-13T07:13:33;25.83;;;14.70;;
4353;SDS011;11018;51.258;6.806;2023-10-13T07:16:12;22.65;;;14.10;;
4353;SDS011;11018;51.258;6.806;2023-10-13T07:18:38;27.20;;;13.90;;
4353;SDS011;11018;51.258;6.806;2023-10-13T07:21:14;27.15;;;14.10;;
4353;SDS011;11018;51.258;6.806;2023-10-13T07:23:49;25.38;;;14.00;;
4353;SDS011;11018;51.258;6.806;2023-10-13T07:26:25;31.00;;;14.90;;
4353;SDS011;11018;51.258;6.806;2023-10-13T07:28:51;23.92;;;14.77;;
4353;SDS011;11018;51.258;6.806;2023-10-13T07:31:17;24.97;;;13.43;;
4353;SDS011;11018;51.258;6.806;2023-10-13T07:33:45;24.73;;;13.63;;
4353;SDS011;11018;51.258;6.806;2023-10-13T07:36:12;21.58;;;13.02;;
4353;SDS011;11018;51.258;6.806;2023-10-13T07:38:44;20.17;;;12.48;;
4353;SDS011;11018;51.258;6.806;2023-10-13T07:41:16;28.38;;;14.13;;
4353;SDS011;11018;51.258;6.806;2023-10-13T07:43:42;24.17;;;13.38;;
4353;SDS011;11018;51.258;6.806;2023-10-13T07:46:10;24.02;;;13.35;;
4353;SDS011;11018;51.258;6.806;2023-10-13T07:48:37;22.40;;;13.30;;
4353;SDS011;11018;51.258;6.806;2023-10-13T07:51:06;26.98;;;13.60;;
4353;SDS011;11018;51.258;6.806;2023-10-13T07:53:37;25.98;;;13.55;;
4353;SDS011;11018;51.258;6.806;2023-10-13T07:56:05;24.95;;;13.35;;
4353;SDS011;11018;51.258;6.806;2023-10-13T07:58:37;25.92;;;13.95;;
4353;SDS011;11018;51.258;6.806;2023-10-13T08:01:12;28.10;;;13.00;;
4353;SDS011;11018;51.258;6.806;2023-10-13T08:03:42;25.02;;;12.80;;
4353;SDS011;11018;51.258;6.806;2023-10-13T08:06:17;26.95;;;13.23;;
4353;SDS011;11018;51.258;6.806;2023-10-13T08:08:42;22.15;;;13.10;;
4353;SDS011;11018;51.258;6.806;2023-10-13T08:11:12;28.87;;;12.63;;
4353;SDS011;11018;51.258;6.806;2023-10-13T08:14:05;26.35;;;13.25;;
4353;SDS011;11018;51.258;6.806;2023-10-13T08:16:43;24.30;;;11.80;;
4353;SDS011;11018;51.258;6.806;2023-10-13T08:21:52;25.05;;;12.68;;
4353;SDS011;11018;51.258;6.806;2023-10-13T08:24:27;25.45;;;12.82;;
4353;SDS011;11018;51.258;6.806;2023-10-13T08:26:53;31.63;;;12.60;;
4353;SDS011;11018;51.258;6.806;2023-10-13T08:29:37;20.90;;;11.48;;
4353;SDS011;11018;51.258;6.806;2023-10-13T08:32:21;26.67;;;11.73;;
4353;SDS011;11018;51.258;6.806;2023-10-13T08:34:53;18.20;;;10.85;;
4353;SDS011;11018;51.258;6.806;2023-10-13T08:37:23;22.85;;;10.93;;
4353;SDS011;11018;51.258;6.806;2023-10-13T08:39:52;30.08;;;10.98;;
4353;SDS011;11018;51.258;6.806;2023-10-13T08:45:08;32.10;;;10.68;;
4353;SDS011;11018;51.258;6.806;2023-10-13T08:47:49;24.10;;;10.37;;
4353;SDS011;11018;51.258;6.806;2023-10-13T08:50:22;27.75;;;11.27;;
4353;SDS011;11018;51.258;6.806;2023-10-13T08:53:12;20.30;;;10.00;;
4353;SDS011;11018;51.258;6.806;2023-10-13T08:56:06;27.83;;;11.10;;
4353;SDS011;11018;51.258;6.806;2023-10-13T08:58:38;31.85;;;10.40;;
4353;SDS011;11018;51.258;6.806;2023-10-13T09:01:17;31.73;;;10.70;;
4353;SDS011;11018;51.258;6.806;2023-10-13T09:04:07;26.40;;;10.43;;
4353;SDS011;11018;51.258;6.806;2023-10-13T09:06:58;22.85;;;10.60;;
4353;SDS011;11018;51.258;6.806;2023-10-13T09:09:25;28.40;;;9.25;;
4353;SDS011;11018;51.258;6.806;2023-10-13T09:14:58;25.15;;;9.85;;
4353;SDS011;11018;51.258;6.806;2023-10-13T09:18:09;28.90;;;10.43;;
4353;SDS011;11018;51.258;6.806;2023-10-13T09:20:40;25.63;;;9.88;;
4353;SDS011;11018;51.258;6.806;2023-10-13T09:23:09;22.53;;;9.73;;
4353;SDS011;11018;51.258;6.806;2023-10-13T09:25:38;22.95;;;8.75;;
4353;SDS011;11018;51.258;6.806;2023-10-13T09:28:18;25.10;;;8.23;;
4353;SDS011;11018;51.258;6.806;2023-10-13T09:30:50;24.23;;;8.55;;
4353;SDS011;11018;51.258;6.806;2023-10-13T09:33:22;24.35;;;8.15;;
4353;SDS011;11018;51.258;6.806;2023-10-13T09:36:00;17.92;;;7.70;;
4353;SDS011;11018;51.258;6.806;2023-10-13T09:38:29;19.67;;;7.95;;
4353;SDS011;11018;51.258;6.806;2023-10-13T09:40:57;17.88;;;7.90;;
4353;SDS011;11018;51.258;6.806;2023-10-13T09:43:26;21.70;;;8.20;;
4353;SDS011;11018;51.258;6.806;2023-10-13T09:46:00;20.30;;;8.00;;
4353;SDS011;11018;51.258;6.806;2023-10-13T09:48:33;23.67;;;7.75;;
4353;SDS011;11018;51.258;6.806;2023-10-13T09:51:03;21.70;;;8.35;;
4353;SDS011;11018;51.258;6.806;2023-10-13T09:53:34;19.63;;;7.72;;
4353;SDS011;11018;51.258;6.806;2023-10-13T09:58:39;18.47;;;9.60;;
4353;SDS011;11018;51.258;6.806;2023-10-13T10:01:12;20.13;;;8.20;;
4353;SDS011;11018;51.258;6.806;2023-10-13T10:03:46;21.42;;;7.95;;
4353;SDS011;11018;51.258;6.806;2023-10-13T10:06:38;19.13;;;8.30;;
4353;SDS011;11018;51.258;6.806;2023-10-13T10:09:08;17.90;;;7.77;;
4353;SDS011;11018;51.258;6.806;2023-10-13T10:14:24;27.70;;;8.23;;
4353;SDS011;11018;51.258;6.806;2023-10-13T10:19:33;21.20;;;8.77;;
4353;SDS011;11018;51.258;6.806;2023-10-13T10:22:10;20.07;;;8.77;;
4353;SDS011;11018;51.258;6.806;2023-10-13T10:24:42;14.50;;;7.45;;
4353;SDS011;11018;51.258;6.806;2023-10-13T10:27:08;22.75;;;8.00;;
4353;SDS011;11018;51.258;6.806;2023-10-13T10:29:39;22.95;;;8.35;;
4353;SDS011;11018;51.258;6.806;2023-10-13T10:32:32;16.85;;;7.82;;
4353;SDS011;11018;51.258;6.806;2023-10-13T10:35:05;24.33;;;8.53;;
4353;SDS011;11018;51.258;6.806;2023-10-13T10:37:40;20.65;;;9.10;;
4353;SDS011;11018;51.258;6.806;2023-10-13T10:40:16;18.08;;;9.45;;
4353;SDS011;11018;51.258;6.806;2023-10-13T10:43:01;18.58;;;8.98;;
4353;SDS011;11018;51.258;6.806;2023-10-13T10:45:29;18.25;;;8.75;;
4353;SDS011;11018;51.258;6.806;2023-10-13T10:47:58;16.45;;;8.90;;
4353;SDS011;11018;51.258;6.806;2023-10-13T10:50:25;21.20;;;8.80;;
4353;SDS011;11018;51.258;6.806;2023-10-13T10:52:59;25.40;;;10.00;;
4353;SDS011;11018;51.258;6.806;2023-10-13T10:55:32;19.58;;;8.80;;
4353;SDS011;11018;51.258;6.806;2023-10-13T10:57:58;18.90;;;8.40;;
4353;SDS011;11018;51.258;6.806;2023-10-13T11:00:24;22.35;;;9.07;;
4353;SDS011;11018;51.258;6.806;2023-10-13T11:03:01;19.65;;;8.82;;
4353;SDS011;11018;51.258;6.806;2023-10-13T11:05:29;22.77;;;8.90;;
4353;SDS011;11018;51.258;6.806;2023-10-13T11:07:57;20.10;;;9.00;;
4353;SDS011;11018;51.258;6.806;2023-10-13T11:10:23;17.65;;;9.52;;
4353;SDS011;11018;51.258;6.806;2023-10-13T11:12:56;22.80;;;9.32;;
4353;SDS011;11018;51.258;6.806;2023-10-13T11:15:43;18.83;;;8.50;;
4353;SDS011;11018;51.258;6.806;2023-10-13T11:18:12;19.17;;;8.03;;
4353;SDS011;11018;51.258;6.806;2023-10-13T11:20:47;23.80;;;8.57;;
4353;SDS011;11018;51.258;6.806;2023-10-13T11:23:19;21.30;;;8.52;;
4353;SDS011;11018;51.258;6.806;2023-10-13T11:25:56;21.80;;;8.40;;
4353;SDS011;11018;51.258;6.806;2023-10-13T11:28:24;28.08;;;9.68;;
4353;SDS011;11018;51.258;6.806;2023-10-13T11:30:53;27.42;;;9.93;;
4353;SDS011;11018;51.258;6.806;2023-10-13T11:33:35;24.47;;;8.33;;
4353;SDS011;11018;51.258;6.806;2023-10-13T11:36:11;24.08;;;8.70;;
4353;SDS011;11018;51.258;6.806;2023-10-13T11:38:47;22.27;;;7.90;;
4353;SDS011;11018;51.258;6.806;2023-10-13T11:41:12;20.02;;;8.57;;
4353;SDS011;11018;51.258;6.806;2023-10-13T11:43:52;22.05;;;7.85;;
4353;SDS011;11018;51.258;6.806;2023-10-13T11:46:21;24.85;;;8.55;;
4353;SDS011;11018;51.258;6.806;2023-10-13T11:49:00;29.60;;;8.25;;
4353;SDS011;11018;51.258;6.806;2023-10-13T11:51:38;25.45;;;8.27;;
4353;SDS011;11018;51.258;6.806;2023-10-13T11:54:04;27.58;;;8.07;;
4353;SDS011;11018;51.258;6.806;2023-10-13T11:56:30;25.88;;;8.23;;
4353;SDS011;11018;51.258;6.806;2023-10-13T11:58:55;24.23;;;8.00;;
4353;SDS011;11018;51.258;6.806;2023-10-13T12:01:26;21.15;;;7.47;;
4353;SDS011;11018;51.258;6.806;2023-10-13T12:04:11;23.60;;;7.57;;
4353;SDS011;11018;51.258;6.806;2023-10-13T12:06:55;22.48;;;7.63;;
4353;SDS011;11018;51.258;6.806;2023-10-13T12:09:38;24.30;;;8.00;;
4353;SDS011;11018;51.258;6.806;2023-10-13T12:12:22;18.80;;;7.23;;
4353;SDS011;11018;51.258;6.806;2023-10-13T12:14:49;23.75;;;7.30;;
4353;SDS011;11018;51.258;6.806;2023-10-13T12:17:24;23.45;;;7.05;;
4353;SDS011;11018;51.258;6.806;2023-10-13T12:19:56;25.75;;;7.60;;
4353;SDS011;11018;51.258;6.806;2023-10-13T12:22:22;18.65;;;6.90;;
4353;SDS011;11018;51.258;6.806;2023-10-13T12:25:08;26.52;;;7.43;;
4353;SDS011;11018;51.258;6.806;2023-10-13T12:27:50;27.17;;;7.80;;
4353;SDS011;11018;51.258;6.806;2023-10-13T12:30:21;30.08;;;8.00;;
4353;SDS011;11018;51.258;6.806;2023-10-13T12:33:14;21.20;;;6.95;;
4353;SDS011;11018;51.258;6.806;2023-10-13T12:35:48;26.25;;;7.55;;
4353;SDS011;11018;51.258;6.806;2023-10-13T12:38:34;30.02;;;8.35;;
4353;SDS011;11018;51.258;6.806;2023-10-13T12:41:12;27.23;;;7.30;;
4353;SDS011;11018;51.258;6.806;2023-10-13T12:43:56;22.08;;;7.30;;
4353;SDS011;11018;51.258;6.806;2023-10-13T12:46:40;27.42;;;7.53;;
4353;SDS011;11018;51.258;6.806;2023-10-13T12:49:25;27.30;;;8.15;;
4353;SDS011;11018;51.258;6.806;2023-10-13T12:52:09;25.37;;;7.90;;
4353;SDS011;11018;51.258;6.806;2023-10-13T12:54:44;30.70;;;7.70;;
4353;SDS011;11018;51.258;6.806;2023-10-13T12:57:22;26.73;;;8.13;;
4353;SDS011;11018;51.258;6.806;2023-10-13T12:59:51;31.92;;;8.30;;
4353;SDS011;11018;51.258;6.806;2023-10-13T13:02:22;23.30;;;7.60;;
4353;SDS011;11018;51.258;6.806;2023-10-13T13:04:50;40.22;;;8.18;;
4353;SDS011;11018;51.258;6.806;2023-10-13T13:07:19;27.92;;;8.00;;
4353;SDS011;11018;51.258;6.806;2023-10-13T13:09:46;22.77;;;8.18;;
4353;SDS011;11018;51.258;6.806;2023-10-13T13:12:11;26.67;;;8.05;;
4353;SDS011;11018;51.258;6.806;2023-10-13T13:14:37;29.05;;;8.00;;
4353;SDS011;11018;51.258;6.806;2023-10-13T13:17:06;24.83;;;7.40;;
4353;SDS011;11018;51.258;6.806;2023-10-13T13:19:35;30.20;;;7.20;;
4353;SDS011;11018;51.258;6.806;2023-10-13T13:22:04;26.90;;;8.10;;
4353;SDS011;11018;51.258;6.806;2023-10-13T13:24:36;31.02;;;7.93;;
4353;SDS011;11018;51.258;6.806;2023-10-13T13:27:13;36.38;;;8.65;;
4353;SDS011;11018;51.258;6.806;2023-10-13T13:29:42;25.85;;;7.95;;
4353;SDS011;11018;51.258;6.806;2023-10-13T13:32:09;29.30;;;8.10;;
4353;SDS011;11018;51.258;6.806;2023-10-13T13:34:49;28.65;;;8.20;;
4353;SDS011;11018;51.258;6.806;2023-10-13T13:37:39;25.83;;;8.50;;
4353;SDS011;11018;51.258;6.806;2023-10-13T13:40:05;25.45;;;8.07;;
4353;SDS011;11018;51.258;6.806;2023-10-13T13:42:43;24.13;;;7.90;;
4353;SDS011;11018;51.258;6.806;2023-10-13T13:45:13;27.02;;;7.78;;
4353;SDS011;11018;51.258;6.806;2023-10-13T13:47:56;22.83;;;8.30;;
4353;SDS011;11018;51.258;6.806;2023-10-13T13:50:23;27.33;;;8.13;;
4353;SDS011;11018;51.258;6.806;2023-10-13T13:52:51;28.77;;;7.93;;
4353;SDS011;11018;51.258;6.806;2023-10-13T13:55:21;33.50;;;7.70;;
4353;SDS011;11018;51.258;6.806;2023-10-13T13:57:48;29.50;;;7.30;;
4353;SDS011;11018;51.258;6.806;2023-10-13T14:00:15;34.00;;;8.10;;
4353;SDS011;11018;51.258;6.806;2023-10-13T14:02:43;28.43;;;8.30;;
4353;SDS011;11018;51.258;6.806;2023-10-13T14:05:15;22.67;;;7.40;;
4353;SDS011;11018;51.258;6.806;2023-10-13T14:07:42;24.48;;;7.85;;
4353;SDS011;11018;51.258;6.806;2023-10-13T14:10:13;28.05;;;7.90;;
4353;SDS011;11018;51.258;6.806;2023-10-13T14:12:56;27.43;;;7.77;;
4353;SDS011;11018;51.258;6.806;2023-10-13T14:15:31;22.10;;;7.60;;
4353;SDS011;11018;51.258;6.806;2023-10-13T14:18:07;28.95;;;7.25;;
4353;SDS011;11018;51.258;6.806;2023-10-13T14:20:39;33.92;;;7.88;;
4353;SDS011;11018;51.258;6.806;2023-10-13T14:23:08;37.53;;;8.85;;
4353;SDS011;11018;51.258;6.806;2023-10-13T14:25:37;28.40;;;8.43;;
4353;SDS011;11018;51.258;6.806;2023-10-13T14:28:04;30.88;;;8.05;;
4353;SDS011;11018;51.258;6.806;2023-10-13T14:30:30;24.80;;;7.70;;
4353;SDS011;11018;51.258;6.806;2023-10-13T14:32:56;22.77;;;7.43;;
4353;SDS011;11018;51.258;6.806;2023-10-13T14:35:23;27.33;;;8.50;;
4353;SDS011;11018;51.258;6.806;2023-10-13T14:37:51;25.48;;;7.95;;
4353;SDS011;11018;51.258;6.806;2023-10-13T14:40:17;26.02;;;8.52;;
4353;SDS011;11018;51.258;6.806;2023-10-13T14:42:46;30.05;;;8.05;;
4353;SDS011;11018;51.258;6.806;2023-10-13T14:45:12;26.77;;;7.35;;
4353;SDS011;11018;51.258;6.806;2023-10-13T14:47:41;24.83;;;8.80;;
4353;SDS011;11018;51.258;6.806;2023-10-13T14:50:07;25.30;;;7.70;;
4353;SDS011;11018;51.258;6.806;2023-10-13T14:52:44;25.70;;;8.07;;
4353;SDS011;11018;51.258;6.806;2023-10-13T14:55:10;25.08;;;7.70;;
4353;SDS011;11018;51.258;6.806;2023-10-13T14:57:49;24.27;;;7.78;;
4353;SDS011;11018;51.258;6.806;2023-10-13T15:00:15;23.60;;;7.47;;
4353;SDS011;11018;51.258;6.806;2023-10-13T15:02:49;27.35;;;7.93;;
4353;SDS011;11018;51.258;6.806;2023-10-13T15:05:19;27.20;;;7.10;;
4353;SDS011;11018;51.258;6.806;2023-10-13T15:07:44;22.07;;;8.03;;
4353;SDS011;11018;51.258;6.806;2023-10-13T15:10:13;17.35;;;7.40;;
4353;SDS011;11018;51.258;6.806;2023-10-13T15:12:40;21.25;;;7.50;;
4353;SDS011;11018;51.258;6.806;2023-10-13T15:15:06;18.40;;;7.40;;
4353;SDS011;11018;51.258;6.806;2023-10-13T15:17:38;17.42;;;7.10;;
4353;SDS011;11018;51.258;6.806;2023-10-13T15:20:05;21.20;;;7.40;;
4353;SDS011;11018;51.258;6.806;2023-10-13T15:22:34;24.27;;;8.30;;
4353;SDS011;11018;51.258;6.806;2023-10-13T15:25:01;24.17;;;7.80;;
4353;SDS011;11018;51.258;6.806;2023-10-13T15:27:45;26.65;;;8.00;;
4353;SDS011;11018;51.258;6.806;2023-10-13T15:30:20;22.13;;;8.30;;
4353;SDS011;11018;51.258;6.806;2023-10-13T15:32:49;25.20;;;8.10;;
4353;SDS011;11018;51.258;6.806;2023-10-13T15:35:15;24.63;;;7.57;;